createdAt,value
2018-07-08T00:00:49.537Z,101348.98
2018-07-08T00:01:52.985Z,101351.53
2018-07-08T00:02:56.434Z,101347.36
2018-07-08T00:03:59.989Z,101349.23
2018-07-08T00:05:03.452Z,101350.37
2018-07-08T00:06:06.924Z,101347.27
2018-07-08T00:07:10.342Z,101351.20
2018-07-08T00:08:13.788Z,101346.69
2018-07-08T00:09:17.271Z,101352.02
2018-07-08T00:10:20.731Z,101352.59
2018-07-08T00:11:24.179Z,101356.19
2018-07-08T00:12:27.632Z,101354.80
2018-07-08T00:13:31.068Z,101354.22
2018-07-08T00:14:34.472Z,101358.39
2018-07-08T00:15:37.943Z,101349.23
2018-07-08T00:16:41.391Z,101359.20
2018-07-08T00:17:44.840Z,101355.61
2018-07-08T00:18:48.239Z,101356.41
2018-07-08T00:19:51.644Z,101356.41
2018-07-08T00:20:56.042Z,101356.41
2018-07-08T00:21:59.472Z,101355.02
2018-07-08T00:23:02.894Z,101358.03
2018-07-08T00:24:06.279Z,101354.45
2018-07-08T00:25:09.697Z,101355.25
2018-07-08T00:26:13.163Z,101346.69
2018-07-08T00:27:16.938Z,101355.25
2018-07-08T00:28:20.734Z,101351.90
2018-07-08T00:29:24.168Z,101345.53
2018-07-08T00:30:27.677Z,101356.88
2018-07-08T00:31:31.091Z,101351.31
2018-07-08T00:32:34.523Z,101358.27
2018-07-08T00:33:38.069Z,101349.92
2018-07-08T00:34:41.483Z,101355.72
2018-07-08T00:35:44.963Z,101357.91
2018-07-08T00:36:48.396Z,101355.59
2018-07-08T00:37:51.815Z,101355.02
2018-07-08T00:38:55.273Z,101353.05
2018-07-08T00:39:58.758Z,101352.69
2018-07-08T00:41:02.205Z,101356.05
2018-07-08T00:42:05.696Z,101352.34
2018-07-08T00:43:09.152Z,101352.92
2018-07-08T00:44:12.703Z,101361.48
2018-07-08T00:45:16.159Z,101356.51
2018-07-08T00:46:19.678Z,101359.29
2018-07-08T00:47:23.106Z,101360.91
2018-07-08T00:48:26.717Z,101367.28
2018-07-08T00:49:30.187Z,101364.73
2018-07-08T00:50:33.636Z,101363.91
2018-07-08T00:51:37.065Z,101360.33
2018-07-08T00:52:40.491Z,101368.09
2018-07-08T00:53:43.881Z,101370.28
2018-07-08T00:54:47.331Z,101368.31
2018-07-08T00:55:50.769Z,101369.16
2018-07-08T00:56:54.232Z,101375.52
2018-07-08T00:57:57.738Z,101370.77
2018-07-08T00:59:01.185Z,101373.33
2018-07-08T01:00:04.990Z,101373.33
2018-07-08T01:01:08.419Z,101374.95
2018-07-08T01:02:11.845Z,101373.55
2018-07-08T01:03:15.229Z,101372.74
2018-07-08T01:04:18.791Z,101368.31
2018-07-08T01:05:22.246Z,101372.16
2018-07-08T01:06:25.662Z,101372.16
2018-07-08T01:07:29.208Z,101370.77
2018-07-08T01:08:32.641Z,101371.35
2018-07-08T01:09:36.041Z,101370.77
2018-07-08T01:10:39.638Z,101369.97
2018-07-08T01:11:43.073Z,101368.80
2018-07-08T01:12:46.488Z,101370.55
2018-07-08T01:13:50.037Z,101373.78
2018-07-08T01:14:53.432Z,101371.35
2018-07-08T01:15:56.884Z,101370.19
2018-07-08T01:17:00.456Z,101366.83
2018-07-08T01:18:03.940Z,101372.16
2018-07-08T01:19:07.350Z,101369.97
2018-07-08T01:20:10.757Z,101372.74
2018-07-08T01:21:15.102Z,101376.33
2018-07-08T01:22:18.535Z,101372.74
2018-07-08T01:23:21.971Z,101373.55
2018-07-08T01:24:25.374Z,101376.33
2018-07-08T01:25:39.956Z,101380.73
2018-07-08T01:26:43.836Z,101373.55
2018-07-08T01:27:47.244Z,101379.44
2018-07-08T01:28:50.675Z,101379.11
2018-07-08T01:29:54.076Z,101376.10
2018-07-08T01:30:57.509Z,101383.86
2018-07-08T01:32:00.988Z,101376.10
2018-07-08T01:33:04.409Z,101380.50
2018-07-08T01:34:07.812Z,101383.52
2018-07-08T01:35:11.244Z,101385.94
2018-07-08T01:36:14.667Z,101381.54
2018-07-08T01:37:18.097Z,101377.60
2018-07-08T01:38:21.548Z,101377.95
2018-07-08T01:39:25.005Z,101386.52
2018-07-08T01:40:28.442Z,101379.57
2018-07-08T01:41:31.854Z,101385.36
2018-07-08T01:42:35.347Z,101388.95
2018-07-08T01:43:38.769Z,101387.56
2018-07-08T01:44:42.217Z,101391.15
2018-07-08T01:45:45.676Z,101383.97
2018-07-08T01:46:49.119Z,101387.56
2018-07-08T01:47:52.584Z,101386.75
2018-07-08T01:48:55.992Z,101393.12
2018-07-08T01:49:59.583Z,101389.18
2018-07-08T01:51:02.961Z,101400.30
2018-07-08T01:52:06.403Z,101391.15
2018-07-08T01:53:09.863Z,101393.00
2018-07-08T01:54:13.295Z,101393.34
2018-07-08T01:55:16.721Z,101398.09
2018-07-08T01:56:20.219Z,101391.84
2018-07-08T01:57:24.804Z,101401.34
2018-07-08T01:58:28.333Z,101401.34
2018-07-08T01:59:31.782Z,101403.53
2018-07-08T02:00:35.371Z,101404.34
2018-07-08T02:01:38.804Z,101406.55
2018-07-08T02:02:42.237Z,101400.41
2018-07-08T02:03:45.829Z,101405.97
2018-07-08T02:04:49.843Z,101399.59
2018-07-08T02:05:53.280Z,101401.80
2018-07-08T02:06:57.133Z,101406.19
2018-07-08T02:08:00.768Z,101404.00
2018-07-08T02:09:04.574Z,101404.80
2018-07-08T02:10:07.998Z,101407.58
2018-07-08T02:11:11.461Z,101408.98
2018-07-08T02:12:15.504Z,101404.80
2018-07-08T02:13:18.960Z,101405.39
2018-07-08T02:14:22.449Z,101410.14
2018-07-08T02:15:26.092Z,101409.78
2018-07-08T02:16:29.585Z,101411.75
2018-07-08T02:17:33.007Z,101413.95
2018-07-08T02:18:36.482Z,101408.98
2018-07-08T02:19:40.010Z,101416.73
2018-07-08T02:20:43.473Z,101415.11
2018-07-08T02:21:47.050Z,101413.72
2018-07-08T02:22:50.504Z,101414.30
2018-07-08T02:23:53.910Z,101415.47
2018-07-08T02:24:57.638Z,101416.50
2018-07-08T02:26:01.123Z,101418.70
2018-07-08T02:27:04.764Z,101418.12
2018-07-08T02:28:08.202Z,101418.94
2018-07-08T02:29:11.700Z,101414.77
2018-07-08T02:30:15.115Z,101418.36
2018-07-08T02:31:18.640Z,101417.42
2018-07-08T02:32:22.133Z,101419.97
2018-07-08T02:33:25.591Z,101419.39
2018-07-08T02:34:29.095Z,101421.86
2018-07-08T02:35:32.586Z,101420.47
2018-07-08T02:36:36.093Z,101419.30
2018-07-08T02:37:39.626Z,101419.30
2018-07-08T02:38:43.091Z,101424.05
2018-07-08T02:39:46.588Z,101421.27
2018-07-08T02:40:50.183Z,101424.05
2018-07-08T02:41:53.674Z,101420.70
2018-07-08T02:42:57.124Z,101424.28
2018-07-08T02:44:00.559Z,101425.67
2018-07-08T02:45:04.052Z,101426.25
2018-07-08T02:46:07.776Z,101425.67
2018-07-08T02:47:11.235Z,101425.67
2018-07-08T02:48:14.692Z,101427.06
2018-07-08T02:49:19.286Z,101424.86
2018-07-08T02:50:22.757Z,101427.06
2018-07-08T02:51:26.252Z,101421.27
2018-07-08T02:52:29.730Z,101422.31
2018-07-08T02:53:33.150Z,101426.25
2018-07-08T02:54:36.626Z,101422.89
2018-07-08T02:55:40.003Z,101425.33
2018-07-08T02:56:43.435Z,101421.50
2018-07-08T02:57:46.863Z,101424.86
2018-07-08T02:58:50.272Z,101425.09
2018-07-08T02:59:53.668Z,101424.28
2018-07-08T03:00:57.070Z,101424.28
2018-07-08T03:02:00.582Z,101422.31
2018-07-08T03:03:04.010Z,101425.67
2018-07-08T03:04:07.444Z,101423.13
2018-07-08T03:05:10.961Z,101424.52
2018-07-08T03:06:14.338Z,101430.53
2018-07-08T03:07:17.785Z,101429.14
2018-07-08T03:08:21.276Z,101426.36
2018-07-08T03:09:24.656Z,101422.42
2018-07-08T03:10:28.106Z,101424.04
2018-07-08T03:11:31.562Z,101418.48
2018-07-08T03:12:35.048Z,101422.88
2018-07-08T03:13:38.480Z,101421.48
2018-07-08T03:14:41.937Z,101422.88
2018-07-08T03:15:45.348Z,101427.05
2018-07-08T03:16:48.773Z,101423.11
2018-07-08T03:17:52.227Z,101425.89
2018-07-08T03:18:55.655Z,101421.72
2018-07-08T03:19:59.056Z,101420.91
2018-07-08T03:21:02.579Z,101422.52
2018-07-08T03:22:06.124Z,101423.34
2018-07-08T03:23:09.549Z,101421.95
2018-07-08T03:24:12.953Z,101427.73
2018-07-08T03:25:16.364Z,101424.73
2018-07-08T03:26:19.789Z,101425.53
2018-07-08T03:27:23.215Z,101421.95
2018-07-08T03:28:26.739Z,101423.56
2018-07-08T03:29:30.152Z,101424.95
2018-07-08T03:30:33.669Z,101419.16
2018-07-08T03:31:37.060Z,101419.97
2018-07-08T03:32:40.544Z,101421.95
2018-07-08T03:33:43.953Z,101420.55
2018-07-08T03:34:47.388Z,101423.56
2018-07-08T03:35:50.778Z,101427.73
2018-07-08T03:36:54.188Z,101425.19
2018-07-08T03:37:57.607Z,101424.38
2018-07-08T03:39:01.006Z,101427.97
2018-07-08T03:40:04.764Z,101423.56
2018-07-08T03:41:08.268Z,101428.31
2018-07-08T03:42:11.664Z,101426.12
2018-07-08T03:43:15.093Z,101427.28
2018-07-08T03:44:18.495Z,101433.06
2018-07-08T03:45:21.925Z,101431.80
2018-07-08T03:46:25.351Z,101432.61
2018-07-08T03:47:28.783Z,101433.77
2018-07-08T03:48:32.233Z,101440.14
2018-07-08T03:49:35.714Z,101435.16
2018-07-08T03:50:39.194Z,101440.72
2018-07-08T03:51:42.610Z,101439.10
2018-07-08T03:52:46.021Z,101441.08
2018-07-08T03:53:49.398Z,101440.27
2018-07-08T03:54:52.816Z,101441.88
2018-07-08T03:55:56.247Z,101440.27
2018-07-08T03:56:59.672Z,101434.47
2018-07-08T03:58:03.136Z,101433.66
2018-07-08T03:59:06.553Z,101439.22
2018-07-08T04:00:10.024Z,101438.41
2018-07-08T04:01:13.444Z,101435.64
2018-07-08T04:02:16.929Z,101437.61
2018-07-08T04:03:20.358Z,101438.99
2018-07-08T04:04:23.776Z,101438.88
2018-07-08T04:05:27.205Z,101436.67
2018-07-08T04:06:30.665Z,101431.92
2018-07-08T04:07:34.113Z,101434.70
2018-07-08T04:08:37.548Z,101435.52
2018-07-08T04:09:41.022Z,101436.55
2018-07-08T04:10:44.441Z,101432.61
2018-07-08T04:11:48.405Z,101436.78
2018-07-08T04:12:51.819Z,101438.41
2018-07-08T04:13:55.377Z,101437.02
2018-07-08T04:14:58.842Z,101440.60
2018-07-08T04:16:02.332Z,101438.86
2018-07-08T04:17:05.868Z,101438.86
2018-07-08T04:18:09.829Z,101441.87
2018-07-08T04:19:13.283Z,101442.45
2018-07-08T04:20:16.690Z,101447.43
2018-07-08T04:21:20.078Z,101439.09
2018-07-08T04:22:23.449Z,101441.99
2018-07-08T04:23:26.856Z,101443.73
2018-07-08T04:24:30.253Z,101446.28
2018-07-08T04:25:34.320Z,101445.37
2018-07-08T04:26:37.756Z,101446.03
2018-07-08T04:27:41.182Z,101448.36
2018-07-08T04:28:44.673Z,101452.41
2018-07-08T04:29:48.072Z,101445.70
2018-07-08T04:30:51.496Z,101447.53
2018-07-08T04:31:54.935Z,101449.63
2018-07-08T04:32:58.452Z,101459.23
2018-07-08T04:34:03.278Z,101462.36
2018-07-08T04:35:06.690Z,101460.05
2018-07-08T04:36:10.093Z,101465.38
2018-07-08T04:37:13.508Z,101462.69
2018-07-08T04:38:16.904Z,101463.38
2018-07-08T04:39:20.342Z,101464.86
2018-07-08T04:40:23.754Z,101468.56
2018-07-08T04:41:27.187Z,101471.45
2018-07-08T04:42:30.630Z,101466.33
2018-07-08T04:43:34.086Z,101465.86
2018-07-08T04:44:37.502Z,101471.53
2018-07-08T04:45:40.947Z,101477.78
2018-07-08T04:46:44.365Z,101472.57
2018-07-08T04:47:47.780Z,101474.31
2018-07-08T04:48:51.195Z,101478.82
2018-07-08T04:49:54.614Z,101478.02
2018-07-08T04:50:58.032Z,101474.42
2018-07-08T04:52:01.507Z,101478.91
2018-07-08T04:53:05.010Z,101484.80
2018-07-08T04:54:08.444Z,101487.91
2018-07-08T04:55:11.892Z,101487.06
2018-07-08T04:56:15.332Z,101485.89
2018-07-08T04:57:18.741Z,101493.29
2018-07-08T04:58:22.193Z,101485.42
2018-07-08T04:59:25.624Z,101487.22
2018-07-08T05:00:29.066Z,101491.84
2018-07-08T05:01:32.514Z,101489.05
2018-07-08T05:02:35.933Z,101496.82
2018-07-08T05:03:39.347Z,101490.56
2018-07-08T05:04:42.752Z,101491.66
2018-07-08T05:05:46.152Z,101496.03
2018-07-08T05:06:49.636Z,101498.34
2018-07-08T05:07:53.373Z,101491.74
2018-07-08T05:08:56.826Z,101494.39
2018-07-08T05:10:00.224Z,101497.58
2018-07-08T05:11:03.691Z,101501.84
2018-07-08T05:12:07.134Z,101491.55
2018-07-08T05:13:10.577Z,101498.05
2018-07-08T05:14:13.992Z,101491.27
2018-07-08T05:15:17.388Z,101490.48
2018-07-08T05:16:21.015Z,101489.34
2018-07-08T05:17:24.440Z,101496.06
2018-07-08T05:18:27.850Z,101498.42
2018-07-08T05:19:31.258Z,101494.96
2018-07-08T05:20:34.722Z,101491.03
2018-07-08T05:21:38.132Z,101490.35
2018-07-08T05:22:41.554Z,101491.97
2018-07-08T05:23:44.963Z,101490.59
2018-07-08T05:24:48.369Z,101493.94
2018-07-08T05:25:51.765Z,101491.05
2018-07-08T05:26:55.504Z,101493.48
2018-07-08T05:27:58.937Z,101493.48
2018-07-08T05:29:02.358Z,101494.30
2018-07-08T05:30:06.163Z,101495.17
2018-07-08T05:31:09.560Z,101490.72
2018-07-08T05:32:13.000Z,101493.21
2018-07-08T05:33:16.472Z,101494.02
2018-07-08T05:34:19.882Z,101497.84
2018-07-08T05:35:23.320Z,101494.83
2018-07-08T05:36:26.719Z,101495.06
2018-07-08T05:37:30.135Z,101493.44
2018-07-08T05:38:33.579Z,101493.21
2018-07-08T05:39:36.974Z,101501.54
2018-07-08T05:40:40.453Z,101496.56
2018-07-08T05:41:43.840Z,101500.15
2018-07-08T05:42:47.263Z,101494.75
2018-07-08T05:43:50.674Z,101498.44
2018-07-08T05:44:54.096Z,101494.52
2018-07-08T05:45:57.512Z,101498.10
2018-07-08T05:47:01.057Z,101498.44
2018-07-08T05:48:04.519Z,101501.91
2018-07-08T05:49:07.950Z,101505.70
2018-07-08T05:50:11.436Z,101500.45
2018-07-08T05:51:14.832Z,101496.06
2018-07-08T05:52:18.246Z,101500.72
2018-07-08T05:53:21.652Z,101495.48
2018-07-08T05:54:25.217Z,101499.07
2018-07-08T05:55:28.653Z,101495.98
2018-07-08T05:56:32.066Z,101493.45
2018-07-08T05:57:35.509Z,101496.80
2018-07-08T05:58:38.956Z,101498.19
2018-07-08T05:59:42.353Z,101497.14
2018-07-08T06:00:45.730Z,101497.45
2018-07-08T06:01:49.311Z,101493.86
2018-07-08T06:02:52.743Z,101498.37
2018-07-08T06:03:56.188Z,101496.74
2018-07-08T06:04:59.614Z,101492.00
2018-07-08T06:06:03.198Z,101492.81
2018-07-08T06:07:06.682Z,101492.81
2018-07-08T06:08:10.091Z,101497.31
2018-07-08T06:09:13.470Z,101490.72
2018-07-08T06:10:16.891Z,101496.84
2018-07-08T06:11:20.316Z,101497.31
2018-07-08T06:12:23.750Z,101499.98
2018-07-08T06:13:27.148Z,101500.22
2018-07-08T06:14:30.529Z,101495.75
2018-07-08T06:15:33.981Z,101496.80
2018-07-08T06:16:37.439Z,101497.03
2018-07-08T06:17:40.847Z,101499.47
2018-07-08T06:18:44.312Z,101492.19
2018-07-08T06:19:47.852Z,101494.05
2018-07-08T06:20:51.267Z,101499.83
2018-07-08T06:21:54.714Z,101500.06
2018-07-08T06:22:58.285Z,101503.89
2018-07-08T06:24:01.692Z,101500.30
2018-07-08T06:25:06.014Z,101498.00
2018-07-08T06:26:10.493Z,101494.98
2018-07-08T06:27:14.304Z,101492.91
2018-07-08T06:28:18.577Z,101493.78
2018-07-08T06:29:22.492Z,101496.22
2018-07-08T06:30:26.240Z,101497.84
2018-07-08T06:31:29.660Z,101493.91
2018-07-08T06:32:33.569Z,101493.10
2018-07-08T06:33:37.997Z,101496.11
2018-07-08T06:34:42.617Z,101496.92
2018-07-08T06:35:46.245Z,101496.11
2018-07-08T06:36:50.292Z,101498.55
2018-07-08T06:37:54.094Z,101496.00
2018-07-08T06:38:57.738Z,101498.78
2018-07-08T06:40:01.696Z,101499.25
2018-07-08T06:41:05.152Z,101500.06
2018-07-08T06:42:08.765Z,101502.26
2018-07-08T06:43:12.501Z,101498.33
2018-07-08T06:44:15.939Z,101500.53
2018-07-08T06:45:19.554Z,101502.16
2018-07-08T06:46:22.962Z,101496.59
2018-07-08T06:47:26.614Z,101500.19
2018-07-08T06:48:30.120Z,101496.25
2018-07-08T06:49:33.737Z,101492.67
2018-07-08T06:50:38.134Z,101501.81
2018-07-08T06:51:41.975Z,101498.45
2018-07-08T06:52:45.569Z,101497.06
2018-07-08T06:53:50.259Z,101492.09
2018-07-08T06:54:53.680Z,101497.91
2018-07-08T06:55:57.149Z,101493.48
2018-07-08T06:57:00.654Z,101498.45
2018-07-08T06:58:04.151Z,101498.72
2018-07-08T06:59:07.660Z,101496.52
2018-07-08T07:00:11.364Z,101497.91
2018-07-08T07:01:14.887Z,101498.14
2018-07-08T07:02:18.301Z,101501.73
2018-07-08T07:03:21.724Z,101504.27
2018-07-08T07:04:25.160Z,101504.73
2018-07-08T07:05:28.755Z,101500.00
2018-07-08T07:06:32.220Z,101509.72
2018-07-08T07:07:35.802Z,101506.94
2018-07-08T07:08:39.592Z,101502.78
2018-07-08T07:09:43.031Z,101507.17
2018-07-08T07:10:46.460Z,101507.17
2018-07-08T07:11:49.891Z,101506.59
2018-07-08T07:12:53.339Z,101505.21
2018-07-08T07:13:56.861Z,101508.80
2018-07-08T07:15:00.327Z,101503.01
2018-07-08T07:16:03.771Z,101505.21
2018-07-08T07:17:07.244Z,101509.14
2018-07-08T07:18:10.809Z,101502.78
2018-07-08T07:19:14.244Z,101503.01
2018-07-08T07:20:17.870Z,101507.17
2018-07-08T07:21:21.295Z,101504.39
2018-07-08T07:22:24.707Z,101509.38
2018-07-08T07:23:28.262Z,101505.21
2018-07-08T07:24:31.650Z,101509.38
2018-07-08T07:25:35.962Z,101512.96
2018-07-08T07:26:39.395Z,101513.77
2018-07-08T07:27:42.811Z,101508.56
2018-07-08T07:28:47.172Z,101506.36
2018-07-08T07:29:50.964Z,101508.33
2018-07-08T07:30:55.446Z,101504.97
2018-07-08T07:31:58.866Z,101511.34
2018-07-08T07:33:02.279Z,101502.20
2018-07-08T07:34:05.731Z,101503.59
2018-07-08T07:35:09.217Z,101505.89
2018-07-08T07:36:12.652Z,101508.91
2018-07-08T07:37:16.090Z,101505.31
2018-07-08T07:38:19.513Z,101508.67
2018-07-08T07:39:23.080Z,101506.47
2018-07-08T07:40:26.537Z,101501.50
2018-07-08T07:41:29.926Z,101505.89
2018-07-08T07:42:33.543Z,101506.47
2018-07-08T07:43:36.985Z,101505.89
2018-07-08T07:44:40.452Z,101505.66
2018-07-08T07:45:43.872Z,101509.83
2018-07-08T07:46:47.288Z,101502.08
2018-07-08T07:47:50.694Z,101508.44
2018-07-08T07:48:54.078Z,101506.47
2018-07-08T07:49:57.502Z,101510.06
2018-07-08T07:51:01.310Z,101508.09
2018-07-08T07:52:04.750Z,101509.48
2018-07-08T07:53:08.185Z,101504.27
2018-07-08T07:54:11.624Z,101501.73
2018-07-08T07:55:15.061Z,101503.93
2018-07-08T07:56:18.504Z,101503.35
2018-07-08T07:57:21.939Z,101504.16
2018-07-08T07:58:25.344Z,101500.00
2018-07-08T07:59:28.758Z,101506.94
2018-07-08T08:00:32.192Z,101498.37
2018-07-08T08:01:35.625Z,101508.09
2018-07-08T08:02:39.080Z,101504.73
2018-07-08T08:03:42.512Z,101509.72
2018-07-08T08:04:46.410Z,101500.00
2018-07-08T08:05:49.839Z,101504.16
2018-07-08T08:06:53.448Z,101506.12
2018-07-08T08:07:56.864Z,101505.55
2018-07-08T08:09:00.393Z,101500.00
2018-07-08T08:10:03.897Z,101506.36
2018-07-08T08:11:07.368Z,101507.17
2018-07-08T08:12:10.938Z,101507.98
2018-07-08T08:13:14.365Z,101506.02
2018-07-08T08:14:17.823Z,101509.61
2018-07-08T08:15:21.209Z,101511.80
2018-07-08T08:16:24.612Z,101515.39
2018-07-08T08:17:28.090Z,101514.59
2018-07-08T08:18:31.567Z,101518.98
2018-07-08T08:19:34.994Z,101521.19
2018-07-08T08:20:38.489Z,101513.66
2018-07-08T08:21:41.954Z,101520.03
2018-07-08T08:22:45.372Z,101516.91
2018-07-08T08:23:48.818Z,101513.32
2018-07-08T08:24:52.236Z,101513.09
2018-07-08T08:25:55.682Z,101509.73
2018-07-08T08:26:59.115Z,101516.67
2018-07-08T08:28:03.127Z,101523.62
2018-07-08T08:29:06.554Z,101520.84
2018-07-08T08:30:09.985Z,101522.23
2018-07-08T08:31:13.421Z,101512.51
2018-07-08T08:32:16.829Z,101519.22
2018-07-08T08:33:20.784Z,101515.05
2018-07-08T08:35:01.976Z,101523.38
2018-07-08T08:36:05.387Z,101513.66
2018-07-08T08:37:08.815Z,101513.09
2018-07-08T08:38:12.322Z,101517.59
2018-07-08T08:39:15.875Z,101517.36
2018-07-08T08:40:20.485Z,101514.59
2018-07-08T08:41:23.893Z,101514.01
2018-07-08T08:42:27.338Z,101510.66
2018-07-08T08:43:30.955Z,101517.36
2018-07-08T08:44:34.394Z,101513.43
2018-07-08T08:45:37.860Z,101509.03
2018-07-08T08:46:41.289Z,101511.23
2018-07-08T08:47:44.678Z,101512.62
2018-07-08T08:48:48.123Z,101512.04
2018-07-08T08:49:52.319Z,101510.66
2018-07-08T08:50:55.733Z,101515.05
2018-07-08T08:51:59.129Z,101518.41
2018-07-08T08:53:02.581Z,101513.43
2018-07-08T08:54:06.115Z,101508.92
2018-07-08T08:55:10.549Z,101512.27
2018-07-08T08:56:13.978Z,101513.66
2018-07-08T08:57:17.428Z,101510.66
2018-07-08T08:58:20.822Z,101509.27
2018-07-08T08:59:24.244Z,101514.81
2018-07-08T09:00:27.648Z,101513.43
2018-07-08T09:01:31.070Z,101508.11
2018-07-08T09:02:34.544Z,101510.89
2018-07-08T09:03:38.044Z,101510.89
2018-07-08T09:04:42.282Z,101510.08
2018-07-08T09:05:45.691Z,101509.27
2018-07-08T09:06:49.143Z,101510.66
2018-07-08T09:07:52.554Z,101511.47
2018-07-08T09:08:56.151Z,101520.38
2018-07-08T09:09:59.581Z,101512.27
2018-07-08T09:11:03.014Z,101516.20
2018-07-08T09:12:07.070Z,101512.85
2018-07-08T09:13:10.526Z,101512.27
2018-07-08T09:14:13.921Z,101508.69
2018-07-08T09:15:17.355Z,101514.01
2018-07-08T09:16:20.743Z,101521.99
2018-07-08T09:17:24.224Z,101512.27
2018-07-08T09:18:27.655Z,101509.73
2018-07-08T09:19:31.106Z,101505.67
2018-07-08T09:20:34.524Z,101499.66
2018-07-08T09:21:37.963Z,101505.55
2018-07-08T09:22:41.440Z,101507.05
2018-07-08T09:23:44.896Z,101507.36
2018-07-08T09:24:48.308Z,101513.36
2018-07-08T09:25:51.780Z,101507.34
2018-07-08T09:26:55.387Z,101508.27
2018-07-08T09:27:58.796Z,101506.17
2018-07-08T09:29:02.206Z,101501.54
2018-07-08T09:30:05.815Z,101498.00
2018-07-08T09:31:09.283Z,101504.36
2018-07-08T09:32:12.772Z,101500.53
2018-07-08T09:33:16.389Z,101505.17
2018-07-08T09:34:20.755Z,101499.38
2018-07-08T09:35:24.438Z,101506.32
2018-07-08T09:36:27.863Z,101500.77
2018-07-08T09:37:31.385Z,101501.11
2018-07-08T09:38:34.879Z,101499.48
2018-07-08T09:39:38.295Z,101500.64
2018-07-08T09:40:41.741Z,101503.19
2018-07-08T09:41:45.935Z,101504.20
2018-07-08T09:42:49.385Z,101504.55
2018-07-08T09:43:52.815Z,101506.59
2018-07-08T09:44:56.228Z,101504.83
2018-07-08T09:45:59.697Z,101501.34
2018-07-08T09:47:03.111Z,101496.72
2018-07-08T09:48:06.521Z,101508.50
2018-07-08T09:49:09.938Z,101503.25
2018-07-08T09:50:13.432Z,101511.11
2018-07-08T09:51:16.906Z,101510.63
2018-07-08T09:52:20.302Z,101509.25
2018-07-08T09:53:23.778Z,101502.66
2018-07-08T09:54:27.262Z,101509.01
2018-07-08T09:55:30.720Z,101510.16
2018-07-08T09:56:34.444Z,101510.16
2018-07-08T09:57:38.488Z,101501.03
2018-07-08T09:58:42.215Z,101504.82
2018-07-08T09:59:45.632Z,101501.87
2018-07-08T10:00:49.108Z,101501.17
2018-07-08T10:01:52.523Z,101496.88
2018-07-08T10:02:55.943Z,101501.61
2018-07-08T10:03:59.387Z,101499.41
2018-07-08T10:05:02.805Z,101509.12
2018-07-08T10:06:06.470Z,101496.27
2018-07-08T10:07:09.894Z,101501.58
2018-07-08T10:08:13.294Z,101501.07
2018-07-08T10:09:18.796Z,101499.04
2018-07-08T10:10:22.239Z,101494.14
2018-07-08T10:11:25.720Z,101496.27
2018-07-08T10:12:29.160Z,101496.74
2018-07-08T10:13:32.590Z,101487.03
2018-07-08T10:14:36.022Z,101490.52
2018-07-08T10:15:39.412Z,101487.98
2018-07-08T10:16:43.140Z,101479.89
2018-07-08T10:17:46.589Z,101487.27
2018-07-08T10:18:49.981Z,101480.78
2018-07-08T10:19:53.618Z,101486.56
2018-07-08T10:20:56.846Z,101481.25
2018-07-08T10:22:00.310Z,101481.83
2018-07-08T10:23:03.915Z,101482.23
2018-07-08T10:24:07.351Z,101485.92
2018-07-08T10:25:10.796Z,101489.80
2018-07-08T10:26:14.198Z,101483.28
2018-07-08T10:28:01.815Z,101485.78
2018-07-08T10:29:06.088Z,101484.33
2018-07-08T10:30:09.495Z,101479.29
2018-07-08T10:31:14.127Z,101486.45
2018-07-08T10:32:17.545Z,101482.30
2018-07-08T10:33:21.065Z,101480.34
2018-07-08T10:34:24.443Z,101479.19
2018-07-08T10:35:48.987Z,101473.30
2018-07-08T10:36:52.949Z,101477.03
2018-07-08T10:37:56.350Z,101477.50
2018-07-08T10:38:59.825Z,101480.20
2018-07-08T10:40:04.724Z,101484.26
2018-07-08T10:41:08.130Z,101487.61
2018-07-08T10:42:11.526Z,101483.62
2018-07-08T10:43:15.115Z,101481.42
2018-07-08T10:44:18.504Z,101480.84
2018-07-08T10:45:21.951Z,101481.35
2018-07-08T10:46:27.816Z,101481.02
2018-07-08T10:47:34.237Z,101483.45
2018-07-08T10:48:37.810Z,101476.75
2018-07-08T10:49:41.340Z,101477.80
2018-07-08T10:50:45.259Z,101481.96
2018-07-08T10:51:50.799Z,101480.58
2018-07-08T10:52:54.372Z,101480.00
2018-07-08T10:53:58.340Z,101478.27
2018-07-08T10:55:02.179Z,101480.23
2018-07-08T10:56:06.102Z,101481.05
2018-07-08T10:57:09.838Z,101486.83
2018-07-08T10:58:13.671Z,101472.39
2018-07-08T10:59:17.526Z,101474.01
2018-07-08T11:00:21.142Z,101470.66
2018-07-08T11:01:27.402Z,101482.56
2018-07-08T11:02:32.862Z,101486.97
2018-07-08T11:03:39.417Z,101481.41
2018-07-08T11:04:45.617Z,101486.39
2018-07-08T11:05:49.406Z,101475.87
2018-07-08T11:06:53.047Z,101484.42
2018-07-08T11:07:57.305Z,101479.69
2018-07-08T11:09:00.923Z,101471.37
2018-07-08T11:10:04.593Z,101467.20
2018-07-08T11:11:09.565Z,101465.27
2018-07-08T11:12:13.004Z,101465.52
2018-07-08T11:13:17.644Z,101464.70
2018-07-08T11:14:21.443Z,101480.43
2018-07-08T11:15:25.696Z,101466.33
2018-07-08T11:16:29.774Z,101464.94
2018-07-08T11:17:35.937Z,101461.25
2018-07-08T11:18:40.590Z,101461.25
2018-07-08T11:19:46.485Z,101458.95
2018-07-08T11:20:52.116Z,101460.67
2018-07-08T11:21:55.921Z,101467.61
2018-07-08T11:22:59.595Z,101453.97
2018-07-08T11:24:05.804Z,101460.91
2018-07-08T11:25:13.637Z,101454.44
2018-07-08T11:26:19.588Z,101452.58
2018-07-08T11:27:23.516Z,101452.82
2018-07-08T11:28:28.087Z,101450.39
2018-07-08T11:29:33.402Z,101447.27
2018-07-08T11:30:39.213Z,101443.11
2018-07-08T11:31:43.037Z,101445.31
2018-07-08T11:32:46.882Z,101443.11
2018-07-08T11:33:50.519Z,101449.47
2018-07-08T11:34:54.216Z,101448.09
2018-07-08T11:35:57.861Z,101441.15
2018-07-08T11:37:01.630Z,101443.69
2018-07-08T11:38:05.261Z,101441.15
2018-07-08T11:39:08.741Z,101441.15
2018-07-08T11:40:12.333Z,101445.55
2018-07-08T11:41:16.065Z,101448.31
2018-07-08T11:42:19.788Z,101450.28
2018-07-08T11:43:23.640Z,101445.55
2018-07-08T11:44:27.646Z,101443.58
2018-07-08T11:45:31.407Z,101444.16
2018-07-08T11:46:38.615Z,101444.97
2018-07-08T11:47:42.729Z,101443.00
2018-07-08T11:48:48.469Z,101436.07
2018-07-08T11:49:54.673Z,101437.22
2018-07-08T11:50:58.401Z,101434.11
2018-07-08T11:52:02.170Z,101435.27
2018-07-08T11:53:06.057Z,101436.07
2018-07-08T11:54:10.373Z,101438.84
2018-07-08T11:55:14.073Z,101441.05
2018-07-08T11:56:17.675Z,101435.27
2018-07-08T11:57:21.210Z,101436.65
2018-07-08T11:58:24.967Z,101438.84
2018-07-08T11:59:28.507Z,101429.71
2018-07-08T12:00:32.640Z,101429.71
2018-07-08T12:01:36.114Z,101426.36
2018-07-08T12:02:39.833Z,101440.23
2018-07-08T12:03:43.459Z,101434.45
2018-07-08T12:04:46.946Z,101440.23
2018-07-08T12:05:50.542Z,101445.20
2018-07-08T12:06:57.408Z,101435.73
2018-07-08T12:08:07.076Z,101439.31